Eden Valley, Minnesota
Current Conditions -  °F | °C
As of 7:14 PM on Tuesday 21 Oct 2014 (Local Time) from KPEX Reporting Station
Clear Clear  
Wind Chill: 11°   Ceiling: Unl
Heat Index: 11°   Visibility: 10mi
Dew Point:   Wind: 8mph
Humidity: 66%   Direction: 60°ENE
Pressure: 30.08"   Gusts: NA
Location:  45.33°N, 94.55°W
Report Text: KPEX 220014Z AUTO 06007KT 10SM CLR 11/04 A3008 RMK AO2 T01050043
Loading
Personal Weather Stations






























Interactive Weather Map
Tropical Storm Tracking
New forecast layout! Learn more

10-Day Weather Forecast

Advertisements
Track Severe Weather on mobile